sensor_id;sensor_type;location;lat;lon;timestamp;P1;durP1;ratioP1;P2;durP2;ratioP2
58250;SDS011;51449;51.676;5.812;2023-07-31T00:00:30;22.53;;;10.97;;
58250;SDS011;51449;51.676;5.812;2023-07-31T00:02:52;19.40;;;10.33;;
58250;SDS011;51449;51.676;5.812;2023-07-31T00:07:39;21.87;;;10.60;;
58250;SDS011;51449;51.676;5.812;2023-07-31T00:10:00;23.50;;;11.70;;
58250;SDS011;51449;51.676;5.812;2023-07-31T00:12:22;20.60;;;11.50;;
58250;SDS011;51449;51.676;5.812;2023-07-31T00:14:44;22.37;;;11.17;;
58250;SDS011;51449;51.676;5.812;2023-07-31T00:17:07;22.60;;;10.70;;
58250;SDS011;51449;51.676;5.812;2023-07-31T00:19:28;21.00;;;10.47;;
58250;SDS011;51449;51.676;5.812;2023-07-31T00:21:50;20.87;;;10.33;;
58250;SDS011;51449;51.676;5.812;2023-07-31T00:24:12;21.63;;;10.10;;
58250;SDS011;51449;51.676;5.812;2023-07-31T00:26:33;20.53;;;10.70;;
58250;SDS011;51449;51.676;5.812;2023-07-31T00:28:55;20.03;;;10.23;;
58250;SDS011;51449;51.676;5.812;2023-07-31T00:31:17;19.47;;;9.30;;
58250;SDS011;51449;51.676;5.812;2023-07-31T00:33:38;20.63;;;9.73;;
58250;SDS011;51449;51.676;5.812;2023-07-31T00:36:00;24.43;;;9.20;;
58250;SDS011;51449;51.676;5.812;2023-07-31T00:38:22;21.97;;;9.20;;
58250;SDS011;51449;51.676;5.812;2023-07-31T00:40:43;22.13;;;9.53;;
58250;SDS011;51449;51.676;5.812;2023-07-31T00:43:05;21.13;;;8.83;;
58250;SDS011;51449;51.676;5.812;2023-07-31T00:45:29;21.67;;;9.13;;
58250;SDS011;51449;51.676;5.812;2023-07-31T00:47:51;20.80;;;8.80;;
58250;SDS011;51449;51.676;5.812;2023-07-31T00:50:13;17.40;;;8.87;;
58250;SDS011;51449;51.676;5.812;2023-07-31T00:52:35;19.40;;;9.13;;
58250;SDS011;51449;51.676;5.812;2023-07-31T00:54:58;17.97;;;7.90;;
58250;SDS011;51449;51.676;5.812;2023-07-31T00:57:21;16.93;;;7.93;;
58250;SDS011;51449;51.676;5.812;2023-07-31T00:59:45;18.88;;;7.85;;
58250;SDS011;51449;51.676;5.812;2023-07-31T01:02:09;15.05;;;7.70;;
58250;SDS011;51449;51.676;5.812;2023-07-31T01:04:31;16.70;;;7.60;;
58250;SDS011;51449;51.676;5.812;2023-07-31T01:09:36;19.33;;;7.80;;
58250;SDS011;51449;51.676;5.812;2023-07-31T01:12:07;20.40;;;7.37;;
58250;SDS011;51449;51.676;5.812;2023-07-31T01:14:34;18.47;;;7.23;;
58250;SDS011;51449;51.676;5.812;2023-07-31T01:16:55;14.43;;;6.83;;
58250;SDS011;51449;51.676;5.812;2023-07-31T01:19:18;16.50;;;7.40;;
58250;SDS011;51449;51.676;5.812;2023-07-31T01:25:15;16.77;;;6.63;;
58250;SDS011;51449;51.676;5.812;2023-07-31T01:27:53;16.30;;;6.43;;
58250;SDS011;51449;51.676;5.812;2023-07-31T01:30:31;15.80;;;6.43;;
58250;SDS011;51449;51.676;5.812;2023-07-31T01:33:03;16.80;;;6.13;;
58250;SDS011;51449;51.676;5.812;2023-07-31T01:35:28;14.80;;;6.60;;
58250;SDS011;51449;51.676;5.812;2023-07-31T01:37:52;14.60;;;5.33;;
58250;SDS011;51449;51.676;5.812;2023-07-31T01:40:15;16.53;;;5.83;;
58250;SDS011;51449;51.676;5.812;2023-07-31T01:42:37;13.67;;;5.53;;
58250;SDS011;51449;51.676;5.812;2023-07-31T01:44:58;14.03;;;6.17;;
58250;SDS011;51449;51.676;5.812;2023-07-31T01:47:20;15.30;;;5.53;;
58250;SDS011;51449;51.676;5.812;2023-07-31T01:49:42;13.13;;;6.00;;
58250;SDS011;51449;51.676;5.812;2023-07-31T01:52:04;16.60;;;6.07;;
58250;SDS011;51449;51.676;5.812;2023-07-31T01:54:26;12.93;;;5.40;;
58250;SDS011;51449;51.676;5.812;2023-07-31T01:56:48;9.70;;;5.33;;
58250;SDS011;51449;51.676;5.812;2023-07-31T01:59:10;15.47;;;6.13;;
58250;SDS011;51449;51.676;5.812;2023-07-31T02:01:31;15.07;;;5.23;;
58250;SDS011;51449;51.676;5.812;2023-07-31T02:03:53;12.07;;;5.00;;
58250;SDS011;51449;51.676;5.812;2023-07-31T02:06:16;13.97;;;5.30;;
58250;SDS011;51449;51.676;5.812;2023-07-31T02:08:38;11.70;;;5.40;;
58250;SDS011;51449;51.676;5.812;2023-07-31T02:11:00;18.37;;;5.73;;
58250;SDS011;51449;51.676;5.812;2023-07-31T02:13:21;14.10;;;5.67;;
58250;SDS011;51449;51.676;5.812;2023-07-31T02:15:43;12.07;;;5.67;;
58250;SDS011;51449;51.676;5.812;2023-07-31T02:18:06;11.47;;;4.70;;
58250;SDS011;51449;51.676;5.812;2023-07-31T02:20:28;14.20;;;4.90;;
58250;SDS011;51449;51.676;5.812;2023-07-31T02:22:50;14.43;;;5.53;;
58250;SDS011;51449;51.676;5.812;2023-07-31T02:25:11;12.90;;;5.37;;
58250;SDS011;51449;51.676;5.812;2023-07-31T02:27:33;14.23;;;5.33;;
58250;SDS011;51449;51.676;5.812;2023-07-31T02:29:55;14.53;;;4.97;;
58250;SDS011;51449;51.676;5.812;2023-07-31T02:32:17;13.00;;;5.20;;
58250;SDS011;51449;51.676;5.812;2023-07-31T02:34:39;12.83;;;4.67;;
58250;SDS011;51449;51.676;5.812;2023-07-31T02:37:01;12.93;;;5.43;;
58250;SDS011;51449;51.676;5.812;2023-07-31T02:39:22;13.33;;;5.27;;
58250;SDS011;51449;51.676;5.812;2023-07-31T02:41:44;16.53;;;5.53;;
58250;SDS011;51449;51.676;5.812;2023-07-31T02:44:06;14.40;;;5.10;;
58250;SDS011;51449;51.676;5.812;2023-07-31T02:46:28;11.97;;;5.63;;
58250;SDS011;51449;51.676;5.812;2023-07-31T02:48:49;17.07;;;5.90;;
58250;SDS011;51449;51.676;5.812;2023-07-31T02:51:12;13.53;;;4.87;;
58250;SDS011;51449;51.676;5.812;2023-07-31T02:53:33;13.57;;;5.10;;
58250;SDS011;51449;51.676;5.812;2023-07-31T02:55:55;14.63;;;5.07;;
58250;SDS011;51449;51.676;5.812;2023-07-31T02:58:17;16.13;;;6.10;;
58250;SDS011;51449;51.676;5.812;2023-07-31T03:00:45;13.47;;;5.23;;
58250;SDS011;51449;51.676;5.812;2023-07-31T03:03:07;13.10;;;5.83;;
58250;SDS011;51449;51.676;5.812;2023-07-31T03:05:29;12.40;;;5.30;;
58250;SDS011;51449;51.676;5.812;2023-07-31T03:07:50;16.83;;;5.30;;
58250;SDS011;51449;51.676;5.812;2023-07-31T03:10:12;14.00;;;5.50;;
58250;SDS011;51449;51.676;5.812;2023-07-31T03:12:34;13.33;;;5.70;;
58250;SDS011;51449;51.676;5.812;2023-07-31T03:14:55;14.73;;;5.83;;
58250;SDS011;51449;51.676;5.812;2023-07-31T03:17:17;11.50;;;5.43;;
58250;SDS011;51449;51.676;5.812;2023-07-31T03:19:39;11.90;;;5.23;;
58250;SDS011;51449;51.676;5.812;2023-07-31T03:22:01;13.47;;;5.30;;
58250;SDS011;51449;51.676;5.812;2023-07-31T03:24:23;14.43;;;5.60;;
58250;SDS011;51449;51.676;5.812;2023-07-31T03:26:45;12.90;;;5.47;;
58250;SDS011;51449;51.676;5.812;2023-07-31T03:29:07;18.30;;;6.37;;
58250;SDS011;51449;51.676;5.812;2023-07-31T03:31:29;11.03;;;5.77;;
58250;SDS011;51449;51.676;5.812;2023-07-31T03:33:51;11.03;;;5.50;;
58250;SDS011;51449;51.676;5.812;2023-07-31T03:36:12;14.87;;;5.93;;
58250;SDS011;51449;51.676;5.812;2023-07-31T03:38:34;13.27;;;5.87;;
58250;SDS011;51449;51.676;5.812;2023-07-31T03:40:56;11.97;;;5.13;;
58250;SDS011;51449;51.676;5.812;2023-07-31T03:43:20;14.83;;;5.57;;
58250;SDS011;51449;51.676;5.812;2023-07-31T03:45:42;14.80;;;5.30;;
58250;SDS011;51449;51.676;5.812;2023-07-31T03:48:04;15.47;;;5.10;;
58250;SDS011;51449;51.676;5.812;2023-07-31T03:50:26;16.37;;;5.80;;
58250;SDS011;51449;51.676;5.812;2023-07-31T03:52:48;13.73;;;5.50;;
58250;SDS011;51449;51.676;5.812;2023-07-31T03:55:09;13.17;;;5.30;;
58250;SDS011;51449;51.676;5.812;2023-07-31T03:57:31;17.90;;;5.57;;
58250;SDS011;51449;51.676;5.812;2023-07-31T03:59:53;13.80;;;5.67;;
58250;SDS011;51449;51.676;5.812;2023-07-31T04:02:15;16.23;;;5.83;;
58250;SDS011;51449;51.676;5.812;2023-07-31T04:04:37;12.73;;;5.60;;
58250;SDS011;51449;51.676;5.812;2023-07-31T04:06:59;9.73;;;5.10;;
58250;SDS011;51449;51.676;5.812;2023-07-31T04:09:20;13.20;;;4.97;;
58250;SDS011;51449;51.676;5.812;2023-07-31T04:11:42;14.93;;;5.47;;
58250;SDS011;51449;51.676;5.812;2023-07-31T04:14:04;11.00;;;4.70;;
58250;SDS011;51449;51.676;5.812;2023-07-31T04:16:26;14.27;;;5.27;;
58250;SDS011;51449;51.676;5.812;2023-07-31T04:18:48;14.47;;;5.27;;
58250;SDS011;51449;51.676;5.812;2023-07-31T04:21:09;14.50;;;5.70;;
58250;SDS011;51449;51.676;5.812;2023-07-31T04:23:31;11.97;;;4.97;;
58250;SDS011;51449;51.676;5.812;2023-07-31T04:25:53;12.53;;;5.10;;
58250;SDS011;51449;51.676;5.812;2023-07-31T04:28:14;13.37;;;5.43;;
58250;SDS011;51449;51.676;5.812;2023-07-31T04:30:36;13.40;;;5.17;;
58250;SDS011;51449;51.676;5.812;2023-07-31T04:32:58;12.67;;;5.17;;
58250;SDS011;51449;51.676;5.812;2023-07-31T04:35:20;12.40;;;4.43;;
58250;SDS011;51449;51.676;5.812;2023-07-31T04:37:42;13.57;;;5.43;;
58250;SDS011;51449;51.676;5.812;2023-07-31T04:40:03;12.20;;;4.80;;
58250;SDS011;51449;51.676;5.812;2023-07-31T04:42:26;13.37;;;4.73;;
58250;SDS011;51449;51.676;5.812;2023-07-31T04:44:47;17.20;;;5.43;;
58250;SDS011;51449;51.676;5.812;2023-07-31T04:47:09;11.97;;;5.43;;
58250;SDS011;51449;51.676;5.812;2023-07-31T04:49:31;10.50;;;5.00;;
58250;SDS011;51449;51.676;5.812;2023-07-31T04:51:54;10.33;;;4.37;;
58250;SDS011;51449;51.676;5.812;2023-07-31T04:54:15;13.13;;;4.93;;
58250;SDS011;51449;51.676;5.812;2023-07-31T04:56:37;12.27;;;5.13;;
58250;SDS011;51449;51.676;5.812;2023-07-31T04:59:00;15.13;;;4.90;;
58250;SDS011;51449;51.676;5.812;2023-07-31T05:01:21;15.77;;;5.20;;
58250;SDS011;51449;51.676;5.812;2023-07-31T05:03:43;13.90;;;5.00;;
58250;SDS011;51449;51.676;5.812;2023-07-31T05:06:05;11.17;;;4.87;;
58250;SDS011;51449;51.676;5.812;2023-07-31T05:08:27;12.30;;;5.07;;
58250;SDS011;51449;51.676;5.812;2023-07-31T05:10:48;13.20;;;5.20;;
58250;SDS011;51449;51.676;5.812;2023-07-31T05:13:10;13.80;;;5.43;;
58250;SDS011;51449;51.676;5.812;2023-07-31T05:15:32;12.37;;;4.63;;
58250;SDS011;51449;51.676;5.812;2023-07-31T05:17:53;11.87;;;5.00;;
58250;SDS011;51449;51.676;5.812;2023-07-31T05:20:15;10.67;;;4.60;;
58250;SDS011;51449;51.676;5.812;2023-07-31T05:22:37;11.70;;;5.17;;
58250;SDS011;51449;51.676;5.812;2023-07-31T05:24:59;13.03;;;4.63;;
58250;SDS011;51449;51.676;5.812;2023-07-31T05:27:21;10.40;;;4.67;;
58250;SDS011;51449;51.676;5.812;2023-07-31T05:29:43;11.50;;;4.57;;
58250;SDS011;51449;51.676;5.812;2023-07-31T05:32:04;13.47;;;5.20;;
58250;SDS011;51449;51.676;5.812;2023-07-31T05:34:27;13.40;;;5.97;;
58250;SDS011;51449;51.676;5.812;2023-07-31T05:36:49;12.00;;;5.13;;
58250;SDS011;51449;51.676;5.812;2023-07-31T05:39:10;13.50;;;4.93;;
58250;SDS011;51449;51.676;5.812;2023-07-31T05:41:32;11.70;;;5.20;;
58250;SDS011;51449;51.676;5.812;2023-07-31T05:43:54;13.00;;;5.40;;
58250;SDS011;51449;51.676;5.812;2023-07-31T05:46:16;10.20;;;4.90;;
58250;SDS011;51449;51.676;5.812;2023-07-31T05:48:37;10.77;;;5.10;;
58250;SDS011;51449;51.676;5.812;2023-07-31T05:50:59;8.97;;;5.00;;
58250;SDS011;51449;51.676;5.812;2023-07-31T05:53:21;11.70;;;5.27;;
58250;SDS011;51449;51.676;5.812;2023-07-31T05:55:43;10.63;;;5.30;;
58250;SDS011;51449;51.676;5.812;2023-07-31T05:58:05;11.67;;;5.60;;
58250;SDS011;51449;51.676;5.812;2023-07-31T06:00:27;8.33;;;5.07;;
58250;SDS011;51449;51.676;5.812;2023-07-31T06:02:49;9.40;;;5.00;;
58250;SDS011;51449;51.676;5.812;2023-07-31T06:05:11;8.53;;;4.90;;
58250;SDS011;51449;51.676;5.812;2023-07-31T06:07:33;9.03;;;4.87;;
58250;SDS011;51449;51.676;5.812;2023-07-31T06:09:54;10.90;;;4.50;;
58250;SDS011;51449;51.676;5.812;2023-07-31T06:12:16;8.77;;;4.50;;
58250;SDS011;51449;51.676;5.812;2023-07-31T06:14:40;9.23;;;4.27;;
58250;SDS011;51449;51.676;5.812;2023-07-31T06:17:02;6.70;;;4.23;;
58250;SDS011;51449;51.676;5.812;2023-07-31T06:19:23;5.33;;;3.63;;
58250;SDS011;51449;51.676;5.812;2023-07-31T06:21:45;6.73;;;3.60;;
58250;SDS011;51449;51.676;5.812;2023-07-31T06:24:07;5.30;;;3.43;;
58250;SDS011;51449;51.676;5.812;2023-07-31T06:26:29;5.80;;;3.47;;
58250;SDS011;51449;51.676;5.812;2023-07-31T06:28:51;6.30;;;3.30;;
58250;SDS011;51449;51.676;5.812;2023-07-31T06:31:13;5.87;;;3.67;;
58250;SDS011;51449;51.676;5.812;2023-07-31T06:33:35;4.80;;;3.23;;
58250;SDS011;51449;51.676;5.812;2023-07-31T06:35:57;5.47;;;3.43;;
58250;SDS011;51449;51.676;5.812;2023-07-31T06:38:21;4.60;;;3.10;;
58250;SDS011;51449;51.676;5.812;2023-07-31T06:40:46;6.07;;;3.57;;
58250;SDS011;51449;51.676;5.812;2023-07-31T06:43:08;4.40;;;3.00;;
58250;SDS011;51449;51.676;5.812;2023-07-31T06:45:29;4.23;;;2.87;;
58250;SDS011;51449;51.676;5.812;2023-07-31T06:47:51;4.37;;;3.30;;
58250;SDS011;51449;51.676;5.812;2023-07-31T06:50:13;4.07;;;3.27;;
58250;SDS011;51449;51.676;5.812;2023-07-31T06:52:34;5.10;;;3.10;;
58250;SDS011;51449;51.676;5.812;2023-07-31T06:55:01;4.77;;;3.37;;
58250;SDS011;51449;51.676;5.812;2023-07-31T06:57:41;5.87;;;3.03;;
58250;SDS011;51449;51.676;5.812;2023-07-31T07:00:03;3.70;;;3.00;;
58250;SDS011;51449;51.676;5.812;2023-07-31T07:02:25;4.67;;;3.30;;
58250;SDS011;51449;51.676;5.812;2023-07-31T07:04:47;4.60;;;3.10;;
58250;SDS011;51449;51.676;5.812;2023-07-31T07:07:11;4.30;;;3.13;;
58250;SDS011;51449;51.676;5.812;2023-07-31T07:09:32;5.03;;;3.43;;
58250;SDS011;51449;51.676;5.812;2023-07-31T07:11:54;5.50;;;3.40;;
58250;SDS011;51449;51.676;5.812;2023-07-31T07:14:16;4.13;;;3.30;;
58250;SDS011;51449;51.676;5.812;2023-07-31T07:16:37;5.10;;;3.50;;
58250;SDS011;51449;51.676;5.812;2023-07-31T07:19:02;5.80;;;3.53;;
58250;SDS011;51449;51.676;5.812;2023-07-31T07:21:25;4.87;;;3.50;;
58250;SDS011;51449;51.676;5.812;2023-07-31T07:23:47;4.60;;;3.63;;
58250;SDS011;51449;51.676;5.812;2023-07-31T07:26:09;4.37;;;3.40;;
58250;SDS011;51449;51.676;5.812;2023-07-31T07:28:30;5.67;;;3.60;;
58250;SDS011;51449;51.676;5.812;2023-07-31T07:30:52;4.63;;;3.70;;
58250;SDS011;51449;51.676;5.812;2023-07-31T07:33:17;4.07;;;3.13;;
58250;SDS011;51449;51.676;5.812;2023-07-31T07:35:40;4.03;;;3.17;;
58250;SDS011;51449;51.676;5.812;2023-07-31T07:38:02;4.80;;;3.30;;
58250;SDS011;51449;51.676;5.812;2023-07-31T07:40:24;4.40;;;3.30;;
58250;SDS011;51449;51.676;5.812;2023-07-31T07:42:46;4.40;;;3.37;;
58250;SDS011;51449;51.676;5.812;2023-07-31T07:45:08;5.43;;;3.40;;
58250;SDS011;51449;51.676;5.812;2023-07-31T07:47:30;4.50;;;3.00;;
58250;SDS011;51449;51.676;5.812;2023-07-31T07:49:52;3.40;;;3.10;;
58250;SDS011;51449;51.676;5.812;2023-07-31T07:52:14;3.37;;;3.07;;
58250;SDS011;51449;51.676;5.812;2023-07-31T07:54:35;3.43;;;2.80;;
58250;SDS011;51449;51.676;5.812;2023-07-31T07:56:57;5.87;;;3.30;;
58250;SDS011;51449;51.676;5.812;2023-07-31T07:59:20;3.67;;;3.00;;
58250;SDS011;51449;51.676;5.812;2023-07-31T08:01:41;3.73;;;2.90;;
58250;SDS011;51449;51.676;5.812;2023-07-31T08:04:03;3.83;;;3.00;;
58250;SDS011;51449;51.676;5.812;2023-07-31T08:06:25;3.40;;;2.73;;
58250;SDS011;51449;51.676;5.812;2023-07-31T08:08:47;3.97;;;2.97;;
58250;SDS011;51449;51.676;5.812;2023-07-31T08:11:08;4.73;;;3.30;;
58250;SDS011;51449;51.676;5.812;2023-07-31T08:13:30;4.13;;;3.00;;
58250;SDS011;51449;51.676;5.812;2023-07-31T08:15:52;4.77;;;3.53;;
58250;SDS011;51449;51.676;5.812;2023-07-31T08:18:14;3.77;;;2.93;;
58250;SDS011;51449;51.676;5.812;2023-07-31T08:20:37;5.13;;;3.33;;
58250;SDS011;51449;51.676;5.812;2023-07-31T08:22:59;4.87;;;3.80;;
58250;SDS011;51449;51.676;5.812;2023-07-31T08:25:21;4.43;;;3.40;;
58250;SDS011;51449;51.676;5.812;2023-07-31T08:27:43;3.97;;;3.50;;
58250;SDS011;51449;51.676;5.812;2023-07-31T08:30:05;5.20;;;3.80;;
58250;SDS011;51449;51.676;5.812;2023-07-31T08:32:28;5.90;;;3.43;;
58250;SDS011;51449;51.676;5.812;2023-07-31T08:34:49;4.63;;;3.80;;
58250;SDS011;51449;51.676;5.812;2023-07-31T08:37:11;5.70;;;4.07;;
58250;SDS011;51449;51.676;5.812;2023-07-31T08:39:33;5.00;;;4.03;;
58250;SDS011;51449;51.676;5.812;2023-07-31T08:41:58;6.30;;;3.53;;
58250;SDS011;51449;51.676;5.812;2023-07-31T08:44:21;5.73;;;3.87;;
58250;SDS011;51449;51.676;5.812;2023-07-31T08:46:43;6.47;;;4.07;;
58250;SDS011;51449;51.676;5.812;2023-07-31T08:49:07;4.40;;;3.90;;
58250;SDS011;51449;51.676;5.812;2023-07-31T08:51:33;5.07;;;3.45;;
58250;SDS011;51449;51.676;5.812;2023-07-31T08:53:56;6.80;;;4.10;;
58250;SDS011;51449;51.676;5.812;2023-07-31T08:56:18;5.00;;;4.20;;
58250;SDS011;51449;51.676;5.812;2023-07-31T08:58:42;4.37;;;3.80;;
58250;SDS011;51449;51.676;5.812;2023-07-31T09:01:05;5.03;;;3.85;;
58250;SDS011;51449;51.676;5.812;2023-07-31T09:03:29;4.77;;;3.80;;
58250;SDS011;51449;51.676;5.812;2023-07-31T09:05:57;4.47;;;3.30;;
58250;SDS011;51449;51.676;5.812;2023-07-31T09:08:21;4.93;;;4.23;;
58250;SDS011;51449;51.676;5.812;2023-07-31T09:10:44;5.07;;;3.80;;
58250;SDS011;51449;51.676;5.812;2023-07-31T09:13:13;5.40;;;4.00;;
58250;SDS011;51449;51.676;5.812;2023-07-31T09:15:36;5.90;;;3.83;;
58250;SDS011;51449;51.676;5.812;2023-07-31T09:17:59;5.53;;;3.90;;
58250;SDS011;51449;51.676;5.812;2023-07-31T09:20:23;6.45;;;4.10;;
58250;SDS011;51449;51.676;5.812;2023-07-31T09:22:45;5.70;;;4.40;;
58250;SDS011;51449;51.676;5.812;2023-07-31T09:25:24;6.03;;;4.53;;
58250;SDS011;51449;51.676;5.812;2023-07-31T09:30:18;7.47;;;4.93;;
58250;SDS011;51449;51.676;5.812;2023-07-31T09:32:42;6.53;;;4.90;;
58250;SDS011;51449;51.676;5.812;2023-07-31T09:35:18;6.95;;;5.18;;
58250;SDS011;51449;51.676;5.812;2023-07-31T09:37:52;8.10;;;5.70;;
58250;SDS011;51449;51.676;5.812;2023-07-31T09:40:26;7.20;;;5.27;;
58250;SDS011;51449;51.676;5.812;2023-07-31T09:42:50;9.33;;;5.53;;
58250;SDS011;51449;51.676;5.812;2023-07-31T09:45:12;8.40;;;5.33;;
58250;SDS011;51449;51.676;5.812;2023-07-31T09:47:46;8.03;;;5.50;;
58250;SDS011;51449;51.676;5.812;2023-07-31T09:50:11;8.30;;;5.77;;
58250;SDS011;51449;51.676;5.812;2023-07-31T09:52:34;7.17;;;5.50;;
58250;SDS011;51449;51.676;5.812;2023-07-31T09:55:00;10.87;;;5.80;;
58250;SDS011;51449;51.676;5.812;2023-07-31T09:57:22;8.37;;;5.73;;
58250;SDS011;51449;51.676;5.812;2023-07-31T09:59:47;12.10;;;5.93;;
58250;SDS011;51449;51.676;5.812;2023-07-31T10:02:11;8.75;;;6.00;;
58250;SDS011;51449;51.676;5.812;2023-07-31T10:04:42;7.13;;;5.47;;
58250;SDS011;51449;51.676;5.812;2023-07-31T10:07:07;9.30;;;5.70;;
58250;SDS011;51449;51.676;5.812;2023-07-31T10:09:29;9.33;;;5.87;;
58250;SDS011;51449;51.676;5.812;2023-07-31T10:11:58;8.17;;;5.80;;
58250;SDS011;51449;51.676;5.812;2023-07-31T10:14:23;9.27;;;5.67;;
58250;SDS011;51449;51.676;5.812;2023-07-31T10:16:47;6.30;;;5.68;;
58250;SDS011;51449;51.676;5.812;2023-07-31T10:19:10;7.82;;;5.55;;
58250;SDS011;51449;51.676;5.812;2023-07-31T10:21:33;8.40;;;4.70;;
58250;SDS011;51449;51.676;5.812;2023-07-31T10:23:56;8.75;;;5.75;;
58250;SDS011;51449;51.676;5.812;2023-07-31T10:26:18;7.88;;;5.20;;
58250;SDS011;51449;51.676;5.812;2023-07-31T10:28:41;7.13;;;5.07;;
58250;SDS011;51449;51.676;5.812;2023-07-31T10:31:04;7.57;;;4.90;;
58250;SDS011;51449;51.676;5.812;2023-07-31T10:33:27;7.50;;;5.47;;
58250;SDS011;51449;51.676;5.812;2023-07-31T10:35:50;9.38;;;5.45;;
58250;SDS011;51449;51.676;5.812;2023-07-31T10:38:15;7.13;;;5.18;;
58250;SDS011;51449;51.676;5.812;2023-07-31T10:40:37;5.70;;;4.95;;
58250;SDS011;51449;51.676;5.812;2023-07-31T10:42:59;6.90;;;4.60;;
58250;SDS011;51449;51.676;5.812;2023-07-31T10:45:31;5.80;;;4.82;;
58250;SDS011;51449;51.676;5.812;2023-07-31T10:48:02;7.55;;;4.65;;
58250;SDS011;51449;51.676;5.812;2023-07-31T10:50:29;7.03;;;4.30;;
58250;SDS011;51449;51.676;5.812;2023-07-31T10:53:00;8.27;;;4.80;;
58250;SDS011;51449;51.676;5.812;2023-07-31T10:55:29;5.45;;;4.13;;
58250;SDS011;51449;51.676;5.812;2023-07-31T10:58:05;6.47;;;4.28;;
58250;SDS011;51449;51.676;5.812;2023-07-31T11:00:29;7.40;;;4.45;;
58250;SDS011;51449;51.676;5.812;2023-07-31T11:02:58;7.15;;;4.10;;
58250;SDS011;51449;51.676;5.812;2023-07-31T11:08:45;5.20;;;3.90;;
58250;SDS011;51449;51.676;5.812;2023-07-31T11:11:10;5.65;;;3.75;;
58250;SDS011;51449;51.676;5.812;2023-07-31T11:13:41;5.90;;;4.00;;
58250;SDS011;51449;51.676;5.812;2023-07-31T11:16:13;5.40;;;4.07;;
58250;SDS011;51449;51.676;5.812;2023-07-31T11:18:35;8.05;;;3.88;;
58250;SDS011;51449;51.676;5.812;2023-07-31T11:20:58;8.48;;;4.22;;
58250;SDS011;51449;51.676;5.812;2023-07-31T11:23:20;6.32;;;3.90;;
58250;SDS011;51449;51.676;5.812;2023-07-31T11:25:43;5.47;;;4.03;;
58250;SDS011;51449;51.676;5.812;2023-07-31T11:28:11;6.13;;;3.85;;
58250;SDS011;51449;51.676;5.812;2023-07-31T11:30:35;7.28;;;4.03;;
58250;SDS011;51449;51.676;5.812;2023-07-31T11:32:57;4.90;;;3.70;;
58250;SDS011;51449;51.676;5.812;2023-07-31T11:35:19;5.18;;;3.83;;
58250;SDS011;51449;51.676;5.812;2023-07-31T11:37:41;4.93;;;3.55;;
58250;SDS011;51449;51.676;5.812;2023-07-31T11:40:05;4.35;;;3.42;;
58250;SDS011;51449;51.676;5.812;2023-07-31T11:42:27;6.30;;;3.92;;
58250;SDS011;51449;51.676;5.812;2023-07-31T11:44:49;7.05;;;4.22;;
58250;SDS011;51449;51.676;5.812;2023-07-31T11:47:11;4.38;;;3.58;;
58250;SDS011;51449;51.676;5.812;2023-07-31T11:49:33;5.43;;;3.72;;
58250;SDS011;51449;51.676;5.812;2023-07-31T11:51:58;4.45;;;3.50;;
58250;SDS011;51449;51.676;5.812;2023-07-31T11:54:20;6.68;;;3.85;;
58250;SDS011;51449;51.676;5.812;2023-07-31T11:56:42;4.55;;;3.22;;
58250;SDS011;51449;51.676;5.812;2023-07-31T11:59:05;5.38;;;3.47;;
58250;SDS011;51449;51.676;5.812;2023-07-31T12:01:29;8.23;;;3.90;;
58250;SDS011;51449;51.676;5.812;2023-07-31T12:03:53;5.40;;;3.05;;
58250;SDS011;51449;51.676;5.812;2023-07-31T12:06:16;4.97;;;3.13;;
58250;SDS011;51449;51.676;5.812;2023-07-31T12:08:38;6.22;;;3.25;;
58250;SDS011;51449;51.676;5.812;2023-07-31T12:11:07;6.03;;;3.92;;
58250;SDS011;51449;51.676;5.812;2023-07-31T12:13:36;4.82;;;3.40;;
58250;SDS011;51449;51.676;5.812;2023-07-31T12:15:58;6.00;;;3.30;;
58250;SDS011;51449;51.676;5.812;2023-07-31T12:18:23;5.38;;;3.45;;
58250;SDS011;51449;51.676;5.812;2023-07-31T12:20:49;4.85;;;3.58;;
58250;SDS011;51449;51.676;5.812;2023-07-31T12:23:19;4.07;;;2.97;;
58250;SDS011;51449;51.676;5.812;2023-07-31T12:25:54;4.20;;;2.85;;
58250;SDS011;51449;51.676;5.812;2023-07-31T12:31:12;6.50;;;3.35;;
58250;SDS011;51449;51.676;5.812;2023-07-31T12:33:39;5.28;;;3.00;;
58250;SDS011;51449;51.676;5.812;2023-07-31T12:36:03;3.75;;;2.67;;
58250;SDS011;51449;51.676;5.812;2023-07-31T12:38:29;4.95;;;2.80;;
58250;SDS011;51449;51.676;5.812;2023-07-31T12:40:52;4.78;;;3.17;;
58250;SDS011;51449;51.676;5.812;2023-07-31T12:43:13;4.57;;;3.08;;
58250;SDS011;51449;51.676;5.812;2023-07-31T12:45:35;4.38;;;3.15;;
58250;SDS011;51449;51.676;5.812;2023-07-31T12:48:00;4.95;;;3.28;;
58250;SDS011;51449;51.676;5.812;2023-07-31T12:50:23;4.75;;;3.60;;
58250;SDS011;51449;51.676;5.812;2023-07-31T12:52:45;4.55;;;3.47;;
58250;SDS011;51449;51.676;5.812;2023-07-31T12:55:06;5.22;;;3.83;;
58250;SDS011;51449;51.676;5.812;2023-07-31T12:57:28;3.78;;;3.33;;
58250;SDS011;51449;51.676;5.812;2023-07-31T12:59:50;5.65;;;3.40;;
58250;SDS011;51449;51.676;5.812;2023-07-31T13:02:12;5.70;;;3.60;;
58250;SDS011;51449;51.676;5.812;2023-07-31T13:04:34;5.10;;;3.45;;
58250;SDS011;51449;51.676;5.812;2023-07-31T13:06:56;5.90;;;3.60;;
58250;SDS011;51449;51.676;5.812;2023-07-31T13:09:17;5.15;;;3.75;;
58250;SDS011;51449;51.676;5.812;2023-07-31T13:11:39;4.32;;;3.85;;
58250;SDS011;51449;51.676;5.812;2023-07-31T13:14:01;5.93;;;3.90;;
58250;SDS011;51449;51.676;5.812;2023-07-31T13:16:23;5.90;;;3.80;;
58250;SDS011;51449;51.676;5.812;2023-07-31T13:18:45;5.70;;;4.38;;
58250;SDS011;51449;51.676;5.812;2023-07-31T13:21:07;6.35;;;4.07;;
58250;SDS011;51449;51.676;5.812;2023-07-31T13:23:29;6.13;;;4.20;;
58250;SDS011;51449;51.676;5.812;2023-07-31T13:25:51;6.05;;;4.43;;
58250;SDS011;51449;51.676;5.812;2023-07-31T13:28:12;7.80;;;4.35;;
58250;SDS011;51449;51.676;5.812;2023-07-31T13:30:34;6.72;;;4.47;;
58250;SDS011;51449;51.676;5.812;2023-07-31T13:32:56;7.35;;;4.60;;
58250;SDS011;51449;51.676;5.812;2023-07-31T13:35:18;7.38;;;4.50;;
58250;SDS011;51449;51.676;5.812;2023-07-31T13:37:40;6.97;;;5.00;;
58250;SDS011;51449;51.676;5.812;2023-07-31T13:40:02;7.68;;;4.57;;
58250;SDS011;51449;51.676;5.812;2023-07-31T13:42:26;7.60;;;4.70;;
58250;SDS011;51449;51.676;5.812;2023-07-31T13:44:49;7.82;;;5.28;;
58250;SDS011;51449;51.676;5.812;2023-07-31T13:47:11;9.75;;;5.30;;
58250;SDS011;51449;51.676;5.812;2023-07-31T13:49:33;7.57;;;4.82;;
58250;SDS011;51449;51.676;5.812;2023-07-31T13:51:56;6.78;;;4.82;;
58250;SDS011;51449;51.676;5.812;2023-07-31T13:54:19;8.48;;;5.20;;
58250;SDS011;51449;51.676;5.812;2023-07-31T13:56:40;8.73;;;5.47;;
58250;SDS011;51449;51.676;5.812;2023-07-31T13:59:03;8.85;;;4.88;;
58250;SDS011;51449;51.676;5.812;2023-07-31T14:01:24;7.78;;;4.95;;
58250;SDS011;51449;51.676;5.812;2023-07-31T14:03:46;7.80;;;5.05;;
58250;SDS011;51449;51.676;5.812;2023-07-31T14:06:08;8.13;;;4.85;;
58250;SDS011;51449;51.676;5.812;2023-07-31T14:08:30;8.18;;;4.53;;
58250;SDS011;51449;51.676;5.812;2023-07-31T14:10:52;7.63;;;4.97;;
58250;SDS011;51449;51.676;5.812;2023-07-31T14:13:14;9.07;;;4.80;;
58250;SDS011;51449;51.676;5.812;2023-07-31T14:15:35;7.13;;;4.97;;
58250;SDS011;51449;51.676;5.812;2023-07-31T14:17:57;9.88;;;5.70;;
58250;SDS011;51449;51.676;5.812;2023-07-31T14:20:22;8.07;;;5.18;;
58250;SDS011;51449;51.676;5.812;2023-07-31T14:22:44;8.10;;;5.85;;
58250;SDS011;51449;51.676;5.812;2023-07-31T14:25:05;9.68;;;5.57;;
58250;SDS011;51449;51.676;5.812;2023-07-31T14:27:28;9.48;;;5.25;;
58250;SDS011;51449;51.676;5.812;2023-07-31T14:29:50;8.05;;;5.13;;
58250;SDS011;51449;51.676;5.812;2023-07-31T14:32:11;12.43;;;5.55;;